Terminal Aerodrome Forecast
Issued by NWS Twin Cities, MN

Home | Current Version | Previous Version | Graphics & Text | Print | Product List | Glossary On
Versions: 1 2 3 4 5 6 7 8 9 10 11 12 13 14 15 16 17 18 19 20
000
FTUS43 KMPX 230900 AAA
TAFEAU
TAF AMD
KEAU 230948Z 2310/2406 17009KT 3SM BR OVC015
      TEMPO 2310/2314 2SM BR OVC009
     FM231500 18007KT 4SM -DZ BR OVC007
     FM232200 VRB03KT 4SM -RA BR OVC006
     FM240200 34009KT 4SM -RA BR OVC006=

USA.gov is the U.S. government's official web portal to all federal, state and local government web resources and services.